Time;durP1;ratioP1;P1;durP2;ratioP2;P2;SDS_P1;SDS_P2;PMS_P1;PMS_P2;Temp;Humidity;BMP_temperature;BMP_pressure;BME280_temperature;BME280_humidity;BME280_pressure;Samples;Min_cycle;Max_cycle;Signal;HPM_P1;HPM_P2
2023/12/08 00:01:27;;;;;;;11.97;4.97;;;6.00;99.90;;;;;;7283006;19;20189;-79
2023/12/08 00:03:53;;;;;;;10.17;4.73;;;6.00;99.90;;;;;;7283836;19;20197;-79
2023/12/08 00:06:18;;;;;;;10.80;4.60;;;5.90;99.90;;;;;;7282118;19;20725;-78
2023/12/08 00:08:44;;;;;;;11.47;5.50;;;5.90;99.90;;;;;;7280963;19;20245;-79
2023/12/08 00:11:13;;;;;;;11.27;5.07;;;5.80;99.90;;;;;;7304292;19;20183;-79
2023/12/08 00:13:38;;;;;;;10.53;4.90;;;5.70;99.90;;;;;;7280667;19;20186;-78
2023/12/08 00:16:04;;;;;;;11.47;4.90;;;5.60;99.90;;;;;;7282855;19;20201;-79
2023/12/08 00:18:30;;;;;;;10.27;4.57;;;5.60;99.90;;;;;;7281022;19;20193;-79
2023/12/08 00:20:56;;;;;;;10.50;5.37;;;5.50;99.90;;;;;;7283797;19;20195;-79
2023/12/08 00:23:22;;;;;;;12.43;5.50;;;5.60;99.90;;;;;;7282934;19;20201;-79
2023/12/08 00:25:47;;;;;;;11.43;5.40;;;5.70;99.90;;;;;;7282247;19;20192;-79
2023/12/08 00:28:13;;;;;;;12.07;5.60;;;5.80;99.90;;;;;;7281950;19;20190;-79
2023/12/08 00:30:39;;;;;;;12.20;5.10;;;5.80;99.90;;;;;;7302555;19;20308;-79
2023/12/08 00:33:04;;;;;;;11.67;5.77;;;5.90;99.90;;;;;;7280363;19;20177;-80
2023/12/08 00:35:30;;;;;;;11.33;5.37;;;6.00;99.90;;;;;;7282337;19;20208;-80
2023/12/08 00:37:57;;;;;;;10.00;5.27;;;6.00;99.90;;;;;;7283494;19;20187;-80
2023/12/08 00:40:22;;;;;;;12.30;5.70;;;6.10;99.90;;;;;;7281113;19;20186;-80
2023/12/08 00:42:48;;;;;;;13.23;6.17;;;6.10;99.90;;;;;;7282200;19;20195;-79
2023/12/08 00:45:17;;;;;;;13.00;6.23;;;6.00;99.90;;;;;;7278261;19;20181;-79
2023/12/08 00:47:43;;;;;;;13.13;6.10;;;6.00;99.90;;;;;;7280773;19;20276;-81
2023/12/08 00:50:09;;;;;;;13.77;6.40;;;5.90;99.90;;;;;;7304104;19;20177;-80
2023/12/08 00:52:35;;;;;;;14.57;6.90;;;5.90;99.90;;;;;;7282781;19;20194;-80
2023/12/08 00:55:01;;;;;;;12.90;6.80;;;6.00;99.90;;;;;;7282167;19;20670;-80
2023/12/08 00:57:27;;;;;;;12.33;6.30;;;5.90;99.90;;;;;;7282157;19;20191;-80
2023/12/08 00:59:52;;;;;;;14.07;6.87;;;5.80;99.90;;;;;;7280569;19;20181;-80
2023/12/08 01:02:18;;;;;;;14.30;7.17;;;5.80;99.90;;;;;;7282087;19;20477;-79
2023/12/08 01:04:44;;;;;;;15.43;7.10;;;5.70;99.90;;;;;;7280313;19;20261;-79
2023/12/08 01:07:10;;;;;;;12.90;6.60;;;5.70;99.90;;;;;;7302174;19;20284;-79
2023/12/08 01:09:36;;;;;;;16.47;7.50;;;5.70;99.90;;;;;;7282756;19;20201;-79
2023/12/08 01:12:03;;;;;;;13.20;6.80;;;5.70;99.90;;;;;;7281380;19;20625;-79
2023/12/08 01:14:29;;;;;;;15.23;7.60;;;5.70;99.90;;;;;;7278963;19;20188;-79
2023/12/08 01:16:55;;;;;;;17.20;7.60;;;5.70;99.90;;;;;;7280611;19;20188;-79
2023/12/08 01:19:20;;;;;;;14.70;7.40;;;5.70;99.90;;;;;;7280158;19;20227;-78
2023/12/08 01:21:46;;;;;;;15.20;7.93;;;5.80;99.90;;;;;;7281463;19;20532;-78
2023/12/08 01:24:12;;;;;;;14.80;7.40;;;5.90;99.90;;;;;;7296132;19;20184;-77
2023/12/08 01:26:43;;;;;;;16.27;7.83;;;6.10;99.90;;;;;;7308971;19;20184;-78
2023/12/08 01:29:08;;;;;;;16.20;7.67;;;6.20;99.90;;;;;;7289644;19;20637;-78
2023/12/08 01:31:34;;;;;;;14.10;7.70;;;6.20;99.90;;;;;;7286619;19;20181;-78
2023/12/08 01:34:00;;;;;;;15.50;7.90;;;6.30;99.90;;;;;;7287469;19;20188;-78
2023/12/08 01:36:26;;;;;;;15.43;7.87;;;6.30;99.90;;;;;;7287841;19;20201;-79
2023/12/08 01:38:51;;;;;;;14.60;7.70;;;6.10;99.90;;;;;;7288472;19;20201;-79
2023/12/08 01:41:17;;;;;;;15.90;8.03;;;6.10;99.90;;;;;;7286488;19;20581;-79
2023/12/08 01:43:43;;;;;;;16.83;8.17;;;6.20;99.90;;;;;;7288729;19;20564;-78
2023/12/08 01:46:14;;;;;;;17.97;8.80;;;6.10;99.90;;;;;;7307712;19;20188;-78
2023/12/08 01:48:40;;;;;;;15.70;7.73;;;6.10;99.90;;;;;;7287566;19;20205;-78
2023/12/08 01:51:06;;;;;;;17.10;8.60;;;6.00;99.90;;;;;;7287000;19;20695;-78
2023/12/08 01:53:32;;;;;;;16.33;8.57;;;5.80;99.90;;;;;;7286742;19;20571;-79
2023/12/08 01:55:59;;;;;;;16.07;8.43;;;5.70;99.90;;;;;;7286111;19;20217;-78
2023/12/08 01:58:26;;;;;;;14.83;8.10;;;5.60;99.90;;;;;;7287443;19;20284;-78
2023/12/08 02:00:53;;;;;;;16.97;8.63;;;5.50;99.90;;;;;;7285384;19;20199;-79
2023/12/08 02:03:24;;;;;;;17.27;8.90;;;5.50;99.90;;;;;;7288329;19;20538;-79
2023/12/08 02:05:50;;;;;;;17.57;8.47;;;5.30;99.90;;;;;;7286233;19;20216;-79
2023/12/08 02:08:17;;;;;;;19.77;9.17;;;5.40;99.90;;;;;;7285022;19;20265;-78
2023/12/08 02:10:43;;;;;;;18.40;9.27;;;5.60;99.90;;;;;;7286332;19;20181;-79
2023/12/08 02:13:11;;;;;;;16.70;8.67;;;5.70;99.90;;;;;;7307167;19;20357;-80
2023/12/08 02:15:38;;;;;;;16.83;9.30;;;5.80;99.90;;;;;;7287698;19;20201;-80
2023/12/08 02:18:05;;;;;;;16.67;9.03;;;5.80;99.90;;;;;;7284692;19;20220;-80
2023/12/08 02:20:32;;;;;;;20.00;9.53;;;5.90;99.90;;;;;;7285761;19;20206;-80
2023/12/08 02:22:58;;;;;;;18.43;9.63;;;5.80;99.90;;;;;;7285138;19;21109;-80
2023/12/08 02:25:24;;;;;;;21.53;9.80;;;6.00;99.90;;;;;;7284588;19;20272;-79
2023/12/08 02:27:49;;;;;;;18.97;9.50;;;6.00;99.90;;;;;;7286102;19;20282;-79
2023/12/08 02:30:16;;;;;;;20.53;10.07;;;6.00;99.90;;;;;;7285994;19;20189;-80
2023/12/08 02:32:51;;;;;;;19.00;10.03;;;6.10;99.90;;;;;;7302533;19;20179;-78
2023/12/08 02:35:19;;;;;;;19.90;10.00;;;6.10;99.90;;;;;;7284000;19;20215;-78
2023/12/08 02:37:48;;;;;;;18.63;10.30;;;6.10;99.90;;;;;;7285501;19;20643;-79
2023/12/08 02:40:14;;;;;;;18.73;10.10;;;6.00;99.90;;;;;;7284671;19;20185;-79
2023/12/08 02:42:40;;;;;;;19.10;10.37;;;5.80;99.90;;;;;;7310287;19;20597;-80
2023/12/08 02:45:06;;;;;;;24.77;11.20;;;5.90;99.90;;;;;;7285396;19;20249;-80
2023/12/08 02:47:32;;;;;;;21.80;11.03;;;5.90;99.90;;;;;;7285750;19;20186;-79
2023/12/08 02:49:58;;;;;;;23.80;11.53;;;6.10;99.90;;;;;;7284016;19;20206;-80
2023/12/08 02:52:23;;;;;;;21.20;10.57;;;6.20;99.90;;;;;;7285807;19;20189;-79
2023/12/08 02:54:49;;;;;;;23.77;11.23;;;6.30;99.90;;;;;;7285824;19;20189;-80
2023/12/08 02:57:15;;;;;;;20.10;10.70;;;6.30;99.90;;;;;;7285829;19;20252;-78
2023/12/08 02:59:41;;;;;;;23.50;11.13;;;6.30;99.90;;;;;;7306678;19;20192;-78
2023/12/08 03:02:06;;;;;;;20.73;10.80;;;6.40;99.90;;;;;;7286346;19;20207;-78
2023/12/08 03:04:32;;;;;;;23.47;11.60;;;6.40;99.90;;;;;;7285560;19;20253;-78
2023/12/08 03:06:58;;;;;;;21.33;11.57;;;6.30;99.90;;;;;;7284032;19;20209;-78
2023/12/08 03:09:23;;;;;;;23.77;11.90;;;6.40;99.90;;;;;;7285792;19;20201;-78
2023/12/08 03:11:49;;;;;;;24.10;11.30;;;6.50;99.90;;;;;;7284932;19;20586;-79
2023/12/08 03:14:15;;;;;;;23.77;11.83;;;6.50;99.90;;;;;;7283658;19;20185;-79
2023/12/08 03:16:41;;;;;;;22.00;11.83;;;6.60;99.90;;;;;;7306983;19;20173;-78
2023/12/08 03:19:06;;;;;;;22.40;11.57;;;6.60;99.90;;;;;;7283794;19;20188;-78
2023/12/08 03:21:32;;;;;;;19.90;11.23;;;6.70;99.90;;;;;;7285693;19;20687;-79
2023/12/08 03:23:58;;;;;;;24.30;11.57;;;6.60;99.90;;;;;;7284733;19;21095;-78
2023/12/08 03:26:23;;;;;;;19.90;11.30;;;6.50;99.90;;;;;;7282807;19;20283;-79
2023/12/08 03:28:49;;;;;;;20.03;10.70;;;6.40;99.90;;;;;;7281690;19;20733;-78
2023/12/08 03:31:29;;;;;;;21.50;11.30;;;6.50;99.90;;;;;;7283057;19;20192;-77
2023/12/08 03:33:55;;;;;;;20.00;10.90;;;6.50;99.90;;;;;;7282174;19;20192;-78
2023/12/08 03:36:21;;;;;;;25.23;11.97;;;6.60;99.90;;;;;;7281986;19;20196;-77
2023/12/08 03:38:46;;;;;;;23.20;12.20;;;6.70;99.90;;;;;;7279952;19;20762;-77
2023/12/08 03:41:12;;;;;;;21.83;11.23;;;6.70;99.90;;;;;;7290058;19;20201;-77
2023/12/08 03:43:38;;;;;;;24.90;11.83;;;6.70;99.90;;;;;;7303529;19;20723;-78
2023/12/08 03:46:07;;;;;;;21.93;11.83;;;6.70;99.90;;;;;;7279801;19;20195;-78
2023/12/08 03:48:37;;;;;;;21.40;11.50;;;6.70;99.90;;;;;;7280558;19;20195;-78
2023/12/08 03:51:04;;;;;;;21.63;12.10;;;6.70;99.90;;;;;;7281260;19;20241;-78
2023/12/08 03:53:31;;;;;;;20.33;11.27;;;6.80;99.90;;;;;;7281541;19;20189;-78
2023/12/08 03:55:56;;;;;;;21.77;11.17;;;6.90;99.90;;;;;;7280352;19;20185;-78
2023/12/08 03:58:22;;;;;;;21.50;11.33;;;6.90;99.90;;;;;;7277881;19;20195;-78
2023/12/08 04:00:48;;;;;;;21.90;11.83;;;7.00;99.90;;;;;;7281336;19;20590;-77
2023/12/08 04:03:14;;;;;;;26.40;12.07;;;7.00;99.90;;;;;;7281745;19;20181;-78
2023/12/08 04:05:39;;;;;;;25.97;11.63;;;7.10;99.90;;;;;;7304705;19;20660;-78
2023/12/08 04:08:05;;;;;;;27.73;12.73;;;7.10;99.90;;;;;;7282244;19;20190;-78
2023/12/08 04:10:31;;;;;;;24.90;12.20;;;7.00;99.90;;;;;;7281781;19;20280;-78
2023/12/08 04:12:57;;;;;;;25.50;12.07;;;7.10;99.90;;;;;;7282819;19;20196;-78
2023/12/08 04:15:23;;;;;;;26.23;11.97;;;7.10;99.90;;;;;;7282360;19;20190;-78
2023/12/08 04:17:49;;;;;;;26.07;12.93;;;7.10;99.90;;;;;;7281442;19;20216;-79
2023/12/08 04:20:18;;;;;;;29.37;13.37;;;7.20;99.90;;;;;;7281969;19;20185;-78
2023/12/08 04:22:44;;;;;;;28.90;13.07;;;7.20;99.90;;;;;;7283717;19;20185;-78
2023/12/08 04:25:12;;;;;;;31.27;13.00;;;7.20;99.90;;;;;;7304470;19;20192;-78
2023/12/08 04:27:38;;;;;;;26.80;13.10;;;7.10;99.90;;;;;;7283005;19;20189;-79
2023/12/08 04:30:04;;;;;;;33.40;12.83;;;7.10;99.90;;;;;;7284158;19;20208;-79
2023/12/08 04:32:29;;;;;;;29.33;13.43;;;7.20;99.90;;;;;;7281222;19;20280;-78
2023/12/08 04:34:55;;;;;;;33.17;13.93;;;7.20;99.90;;;;;;7282524;19;20193;-78
2023/12/08 04:37:21;;;;;;;35.03;13.80;;;7.30;99.90;;;;;;7282122;19;20192;-78
2023/12/08 04:39:47;;;;;;;33.33;14.23;;;7.20;99.90;;;;;;7282598;19;20185;-78
2023/12/08 04:42:15;;;;;;;32.33;14.40;;;7.20;99.90;;;;;;7287167;19;20655;-78
2023/12/08 04:44:40;;;;;;;32.87;13.97;;;7.20;99.90;;;;;;7302716;19;20181;-78
2023/12/08 04:47:06;;;;;;;32.70;14.23;;;7.20;99.90;;;;;;7281803;19;20278;-79
2023/12/08 04:49:32;;;;;;;32.67;14.37;;;7.30;99.90;;;;;;7282377;19;20335;-79
2023/12/08 04:51:58;;;;;;;32.60;13.93;;;7.40;99.90;;;;;;7282456;19;20675;-79
2023/12/08 04:54:23;;;;;;;34.80;14.93;;;7.30;99.90;;;;;;7281199;19;20195;-79
2023/12/08 04:56:49;;;;;;;32.33;14.13;;;7.50;99.90;;;;;;7281691;19;20197;-79
2023/12/08 04:59:15;;;;;;;30.50;13.90;;;7.50;99.90;;;;;;7288415;19;20279;-78
2023/12/08 05:01:40;;;;;;;32.27;13.83;;;7.60;99.90;;;;;;7310817;19;20208;-78
2023/12/08 05:04:06;;;;;;;31.33;14.43;;;7.50;99.90;;;;;;7287769;19;20177;-79
2023/12/08 05:06:32;;;;;;;33.97;14.40;;;7.50;99.90;;;;;;7287523;19;20198;-78
2023/12/08 05:08:58;;;;;;;32.00;14.77;;;7.50;99.90;;;;;;7289163;19;20202;-78
2023/12/08 05:11:23;;;;;;;33.40;15.13;;;7.60;99.90;;;;;;7288550;19;20200;-79
2023/12/08 05:13:49;;;;;;;36.27;14.63;;;7.60;99.90;;;;;;7285938;19;20702;-79
2023/12/08 05:16:15;;;;;;;38.87;15.80;;;7.70;99.90;;;;;;7288843;19;20200;-79
2023/12/08 05:18:42;;;;;;;33.93;14.70;;;7.60;99.90;;;;;;7309674;19;20290;-78
2023/12/08 05:21:10;;;;;;;44.40;15.53;;;7.70;99.90;;;;;;7289231;19;20193;-78
2023/12/08 05:23:35;;;;;;;39.80;15.27;;;7.50;99.90;;;;;;7284817;19;20284;-78
2023/12/08 05:26:01;;;;;;;35.33;16.03;;;7.60;99.90;;;;;;7286671;19;25867;-78
2023/12/08 05:28:27;;;;;;;40.00;15.93;;;7.50;99.90;;;;;;7288045;19;20216;-78
2023/12/08 05:30:53;;;;;;;38.43;15.77;;;7.50;99.90;;;;;;7287818;19;20582;-78
2023/12/08 05:33:19;;;;;;;43.27;17.10;;;7.40;99.90;;;;;;7287332;19;20361;-78
2023/12/08 05:35:45;;;;;;;40.67;16.43;;;7.50;99.90;;;;;;7287449;19;21055;-77
2023/12/08 05:38:10;;;;;;;49.07;17.80;;;7.60;99.90;;;;;;7309621;19;20208;-78
2023/12/08 05:40:36;;;;;;;42.50;16.90;;;7.60;99.90;;;;;;7287804;19;20189;-79
2023/12/08 05:43:03;;;;;;;47.00;17.27;;;7.70;99.90;;;;;;7286939;19;20226;-78
2023/12/08 05:45:28;;;;;;;44.13;17.97;;;7.70;99.90;;;;;;7287011;19;20193;-79
2023/12/08 05:47:54;;;;;;;50.37;18.77;;;7.80;99.90;;;;;;7287990;19;20200;-78
2023/12/08 05:50:20;;;;;;;52.27;18.50;;;7.80;99.90;;;;;;7286702;19;20193;-78
2023/12/08 05:52:46;;;;;;;49.97;18.20;;;7.90;99.90;;;;;;7285254;19;20188;-79
2023/12/08 05:55:12;;;;;;;44.47;17.73;;;7.80;99.90;;;;;;7309106;19;20643;-77
2023/12/08 05:57:37;;;;;;;44.63;18.23;;;7.80;99.90;;;;;;7295142;19;20219;-78
2023/12/08 06:00:09;;;;;;;48.50;18.57;;;7.80;99.90;;;;;;7287785;19;20245;-78
2023/12/08 06:02:38;;;;;;;45.83;17.47;;;7.70;99.90;;;;;;7286948;19;20188;-78
2023/12/08 06:05:04;;;;;;;48.60;18.17;;;7.70;99.90;;;;;;7285670;19;20189;-78
2023/12/08 06:07:29;;;;;;;55.13;19.47;;;7.70;99.90;;;;;;7286081;19;20695;-78
2023/12/08 06:09:55;;;;;;;44.70;18.07;;;7.70;99.90;;;;;;7287585;19;20185;-78
2023/12/08 06:12:21;;;;;;;51.43;19.00;;;7.80;99.90;;;;;;7285450;19;20226;-80
2023/12/08 06:14:47;;;;;;;52.00;19.37;;;7.90;99.90;;;;;;7286157;19;20864;-79
2023/12/08 06:17:12;;;;;;;59.07;19.63;;;7.80;99.90;;;;;;7295171;19;20199;-78
2023/12/08 06:19:38;;;;;;;56.37;19.43;;;7.80;99.90;;;;;;7303126;19;20213;-79
2023/12/08 06:22:04;;;;;;;53.87;19.07;;;7.80;99.90;;;;;;7286814;19;20663;-79
2023/12/08 06:24:30;;;;;;;50.07;19.83;;;7.90;99.90;;;;;;7285611;19;20245;-79
2023/12/08 06:26:56;;;;;;;50.17;19.73;;;7.90;99.90;;;;;;7284699;19;20189;-78
2023/12/08 06:29:22;;;;;;;49.50;19.70;;;7.90;99.90;;;;;;7286698;19;20216;-78
2023/12/08 06:31:48;;;;;;;46.87;19.00;;;8.00;99.90;;;;;;7287010;19;20779;-78
2023/12/08 06:34:13;;;;;;;58.93;20.00;;;8.00;99.90;;;;;;7288840;19;21111;-78
2023/12/08 06:36:47;;;;;;;52.03;19.60;;;8.00;99.90;;;;;;7307523;19;20189;-78
2023/12/08 06:39:17;;;;;;;60.07;20.10;;;8.00;99.90;;;;;;7269628;19;20523;-78
2023/12/08 06:41:43;;;;;;;56.73;20.00;;;8.10;99.90;;;;;;7299874;19;20208;-78
2023/12/08 06:44:09;;;;;;;54.40;18.63;;;8.10;99.90;;;;;;7307135;19;20245;-79
2023/12/08 06:46:35;;;;;;;59.30;19.70;;;8.00;99.90;;;;;;7283424;19;20206;-79
2023/12/08 06:49:01;;;;;;;52.10;19.70;;;8.00;99.90;;;;;;7288234;19;20160;-78
2023/12/08 06:51:28;;;;;;;59.03;20.00;;;7.90;99.90;;;;;;7286614;19;20185;-79
2023/12/08 06:53:53;;;;;;;60.73;20.57;;;8.00;99.90;;;;;;7281690;19;20189;-79
2023/12/08 06:56:21;;;;;;;61.23;21.87;;;8.10;99.90;;;;;;7284181;19;20189;-78
2023/12/08 06:58:48;;;;;;;59.03;19.70;;;8.20;99.90;;;;;;7285208;19;20177;-78
2023/12/08 07:01:13;;;;;;;66.33;21.30;;;8.20;99.90;;;;;;7289841;19;20199;-76
2023/12/08 07:03:39;;;;;;;51.57;20.47;;;8.20;99.90;;;;;;7307477;19;20257;-78
2023/12/08 07:06:05;;;;;;;55.50;20.80;;;8.30;99.90;;;;;;7284524;19;20697;-78
2023/12/08 07:08:32;;;;;;;55.67;20.33;;;8.30;99.90;;;;;;7284411;19;20190;-78
2023/12/08 07:10:58;;;;;;;62.37;20.37;;;8.20;99.90;;;;;;7284342;19;20287;-78
2023/12/08 07:13:24;;;;;;;54.33;20.00;;;8.10;99.90;;;;;;7284795;19;20217;-78
2023/12/08 07:15:49;;;;;;;57.00;21.00;;;8.20;99.90;;;;;;7282677;19;20296;-78
2023/12/08 07:18:16;;;;;;;60.23;21.07;;;8.30;99.90;;;;;;7282685;19;20534;-78
2023/12/08 07:20:42;;;;;;;54.27;20.10;;;8.30;99.90;;;;;;7303721;19;20192;-79
2023/12/08 07:23:08;;;;;;;55.30;20.33;;;8.40;99.90;;;;;;7282465;19;20188;-78
2023/12/08 07:25:34;;;;;;;59.27;20.80;;;8.50;99.90;;;;;;7280095;19;20364;-79
2023/12/08 07:27:59;;;;;;;61.63;20.90;;;8.50;99.90;;;;;;7280780;19;20200;-78
2023/12/08 07:30:25;;;;;;;60.70;21.63;;;8.40;99.90;;;;;;7279739;19;20249;-78
2023/12/08 07:32:51;;;;;;;59.93;21.53;;;8.50;99.90;;;;;;7279575;19;20193;-78
2023/12/08 07:35:17;;;;;;;57.63;20.17;;;8.50;99.90;;;;;;7281789;19;20178;-78
2023/12/08 07:37:43;;;;;;;60.47;20.33;;;8.60;99.90;;;;;;7295672;19;20229;-77
2023/12/08 07:40:09;;;;;;;61.20;21.90;;;8.50;99.90;;;;;;7294903;19;20209;-78
2023/12/08 07:42:38;;;;;;;64.57;21.50;;;8.50;99.90;;;;;;7283117;19;20185;-78
2023/12/08 07:45:05;;;;;;;60.77;21.57;;;8.50;99.90;;;;;;7284506;19;20210;-78
2023/12/08 07:47:32;;;;;;;56.20;22.33;;;8.50;99.90;;;;;;7284027;19;20216;-78
2023/12/08 07:49:58;;;;;;;57.73;21.87;;;8.40;99.90;;;;;;7284527;19;20641;-78
2023/12/08 07:52:27;;;;;;;60.57;21.27;;;8.30;99.90;;;;;;7283197;19;20203;-78
2023/12/08 07:54:53;;;;;;;59.57;21.37;;;8.20;99.90;;;;;;7283751;19;20205;-78
2023/12/08 07:57:19;;;;;;;57.40;20.30;;;8.40;99.90;;;;;;7282715;19;20188;-78
2023/12/08 07:59:45;;;;;;;46.37;18.27;;;8.30;99.90;;;;;;7283986;19;21643;-77
2023/12/08 08:02:11;;;;;;;49.43;20.23;;;8.30;99.90;;;;;;7304798;19;20181;-78
2023/12/08 08:04:36;;;;;;;58.17;20.03;;;8.30;99.90;;;;;;7284101;19;20203;-78
2023/12/08 08:07:02;;;;;;;54.93;19.43;;;8.30;99.90;;;;;;7282273;19;20209;-78
2023/12/08 08:09:28;;;;;;;52.77;18.87;;;8.40;99.90;;;;;;7284240;19;20227;-78
2023/12/08 08:11:53;;;;;;;53.63;19.37;;;8.40;99.90;;;;;;7281524;19;20188;-78
2023/12/08 08:14:20;;;;;;;48.50;17.77;;;8.50;99.90;;;;;;7280140;19;20818;-77
2023/12/08 08:16:47;;;;;;;58.70;17.20;;;8.50;99.90;;;;;;7282501;19;20185;-76
2023/12/08 08:19:13;;;;;;;47.27;17.80;;;8.50;99.90;;;;;;7292732;19;20185;-76
2023/12/08 08:21:39;;;;;;;50.57;17.97;;;8.60;99.90;;;;;;7302616;19;20196;-78
2023/12/08 08:24:05;;;;;;;49.47;18.50;;;8.50;99.90;;;;;;7282201;19;20180;-77
2023/12/08 08:26:31;;;;;;;46.47;16.70;;;8.50;99.90;;;;;;7280528;19;20221;-78
2023/12/08 08:28:56;;;;;;;48.20;18.50;;;8.50;99.90;;;;;;7281567;19;20601;-77
2023/12/08 08:31:22;;;;;;;51.87;19.57;;;8.50;99.90;;;;;;7282380;19;20209;-78
2023/12/08 08:33:48;;;;;;;58.83;20.37;;;8.50;99.90;;;;;;7280904;19;20188;-77
2023/12/08 08:36:14;;;;;;;58.67;19.90;;;8.50;99.90;;;;;;7281808;19;20189;-77
2023/12/08 08:38:40;;;;;;;53.87;19.53;;;8.50;99.90;;;;;;7304118;19;20590;-78
2023/12/08 08:41:06;;;;;;;61.83;19.53;;;8.60;99.90;;;;;;7281748;19;20201;-78
2023/12/08 08:43:31;;;;;;;57.20;21.67;;;8.70;99.90;;;;;;7284641;19;20220;-79
2023/12/08 08:45:57;;;;;;;57.83;21.20;;;8.80;99.90;;;;;;7281206;19;20555;-78
2023/12/08 08:48:23;;;;;;;57.23;20.40;;;8.90;99.90;;;;;;7282426;19;20196;-77
2023/12/08 08:50:49;;;;;;;54.33;19.60;;;9.00;99.90;;;;;;7282335;19;20188;-78
2023/12/08 08:53:16;;;;;;;54.53;20.67;;;9.00;99.90;;;;;;7282984;19;20189;-78
2023/12/08 08:55:42;;;;;;;54.33;19.37;;;9.00;99.90;;;;;;7301494;19;20207;-78
2023/12/08 08:58:08;;;;;;;57.77;19.13;;;9.00;99.90;;;;;;7283396;19;20281;-78
2023/12/08 09:00:34;;;;;;;50.30;19.03;;;9.00;99.90;;;;;;7281671;19;20203;-77
2023/12/08 09:03:01;;;;;;;54.90;19.47;;;9.10;99.90;;;;;;7280551;19;20203;-77
2023/12/08 09:05:27;;;;;;;52.50;20.43;;;9.10;99.90;;;;;;7279381;19;20225;-77
2023/12/08 09:07:54;;;;;;;48.40;19.00;;;9.10;99.90;;;;;;7281018;19;20194;-78
2023/12/08 09:10:20;;;;;;;52.57;19.53;;;9.10;99.90;;;;;;7284037;19;20181;-78
2023/12/08 09:12:46;;;;;;;51.57;19.83;;;9.20;99.90;;;;;;7282635;19;20181;-78
2023/12/08 09:15:13;;;;;;;54.17;20.23;;;9.10;99.90;;;;;;7290301;19;20186;-77
2023/12/08 09:17:40;;;;;;;52.83;21.00;;;9.10;99.90;;;;;;7280886;19;20182;-77
2023/12/08 09:20:08;;;;;;;63.70;21.03;;;9.10;99.90;;;;;;7280465;19;20252;-77
2023/12/08 09:22:34;;;;;;;56.87;20.80;;;9.00;99.90;;;;;;7282094;19;20547;-77
2023/12/08 09:25:01;;;;;;;62.43;21.00;;;9.10;99.90;;;;;;7281219;19;20190;-78
2023/12/08 09:27:27;;;;;;;57.17;19.57;;;9.30;99.90;;;;;;7280666;19;20515;-79
2023/12/08 09:29:53;;;;;;;58.33;20.83;;;9.40;99.90;;;;;;7281867;19;20188;-78
2023/12/08 09:32:19;;;;;;;57.50;20.30;;;9.40;99.90;;;;;;7278078;19;20672;-78
2023/12/08 09:34:45;;;;;;;48.13;19.13;;;9.40;99.90;;;;;;7279125;19;20189;-77
2023/12/08 09:37:10;;;;;;;45.70;18.47;;;9.50;99.90;;;;;;7303387;19;20712;-78
2023/12/08 09:39:36;;;;;;;49.80;18.40;;;9.70;99.90;;;;;;7281176;19;20185;-78
2023/12/08 09:42:11;;;;;;;44.20;17.30;;;9.70;99.90;;;;;;7281596;19;21143;-78
2023/12/08 09:44:37;;;;;;;46.53;17.73;;;9.70;99.90;;;;;;7286363;19;20192;-78
2023/12/08 09:47:03;;;;;;;40.13;16.40;;;9.70;99.90;;;;;;7287157;19;20282;-78
2023/12/08 09:49:33;;;;;;;46.53;16.63;;;9.70;99.90;;;;;;7288511;19;20215;-77
2023/12/08 09:51:59;;;;;;;47.63;17.27;;;9.60;99.90;;;;;;7288837;19;20194;-77
2023/12/08 09:54:26;;;;;;;43.30;15.63;;;9.50;99.90;;;;;;7288089;19;20190;-77
2023/12/08 09:56:53;;;;;;;44.77;15.53;;;9.60;99.90;;;;;;7288149;19;20258;-77
2023/12/08 09:59:26;;;;;;;41.43;15.67;;;9.70;99.90;;;;;;7287975;19;20218;-77
2023/12/08 10:01:52;;;;;;;41.60;15.70;;;9.60;99.90;;;;;;7287625;19;20567;-78
2023/12/08 10:04:18;;;;;;;45.30;14.17;;;9.70;99.90;;;;;;7285636;19;20202;-79
2023/12/08 10:06:46;;;;;;;40.57;14.30;;;9.70;99.90;;;;;;7284761;19;20197;-78
2023/12/08 10:09:14;;;;;;;36.50;13.67;;;9.60;99.90;;;;;;7308532;19;20197;-78
2023/12/08 10:11:40;;;;;;;32.07;12.87;;;9.60;99.90;;;;;;7285761;19;20181;-79
2023/12/08 10:14:07;;;;;;;38.27;13.07;;;9.70;99.90;;;;;;7283997;19;20195;-78
2023/12/08 10:16:33;;;;;;;36.10;13.57;;;9.80;99.90;;;;;;7285957;19;20317;-78
2023/12/08 10:19:06;;;;;;;40.80;14.23;;;9.80;99.90;;;;;;7287864;19;20229;-78
2023/12/08 10:21:32;;;;;;;43.27;15.20;;;9.70;99.90;;;;;;7284509;19;20190;-78
2023/12/08 10:24:02;;;;;;;45.40;14.60;;;9.80;99.90;;;;;;7287312;19;20194;-79
2023/12/08 10:26:29;;;;;;;40.23;14.77;;;9.80;99.90;;;;;;7283709;19;20537;-79
2023/12/08 10:29:00;;;;;;;48.10;15.40;;;9.80;99.90;;;;;;7282800;19;20204;-77
2023/12/08 10:31:27;;;;;;;47.40;16.53;;;9.80;99.90;;;;;;7283907;19;20187;-77
2023/12/08 10:33:54;;;;;;;43.77;16.77;;;9.90;99.90;;;;;;7284382;19;20186;-77
2023/12/08 10:36:20;;;;;;;36.63;16.00;;;10.00;99.90;;;;;;7282953;19;20997;-78
2023/12/08 10:38:47;;;;;;;38.97;16.13;;;10.00;99.90;;;;;;7281184;19;20194;-78
2023/12/08 10:41:14;;;;;;;42.53;16.27;;;10.20;99.90;;;;;;7298063;19;20203;-77
2023/12/08 10:43:40;;;;;;;44.53;15.77;;;10.30;99.90;;;;;;7304628;19;20194;-78
2023/12/08 10:46:07;;;;;;;34.93;15.17;;;10.20;99.90;;;;;;7269265;19;20198;-78
2023/12/08 10:48:34;;;;;;;43.47;14.90;;;10.30;99.90;;;;;;7286832;19;20228;-78
2023/12/08 10:51:00;;;;;;;39.30;15.70;;;10.20;99.90;;;;;;7285879;19;20650;-78
2023/12/08 10:53:27;;;;;;;41.93;15.33;;;10.30;99.90;;;;;;7286017;19;20228;-78
2023/12/08 10:56:13;;;;;;;43.40;16.33;;;10.30;99.90;;;;;;7284264;19;20661;-78
2023/12/08 10:58:42;;;;;;;40.50;15.77;;;10.40;99.90;;;;;;7286239;19;20180;-78
2023/12/08 11:01:13;;;;;;;40.37;16.37;;;10.40;99.90;;;;;;7285948;19;20971;-78
2023/12/08 11:03:41;;;;;;;41.73;16.87;;;10.40;99.90;;;;;;7285716;19;20186;-78
2023/12/08 11:06:14;;;;;;;42.33;16.30;;;10.30;99.90;;;;;;7284126;19;20326;-77
2023/12/08 11:08:44;;;;;;;44.60;17.10;;;10.30;99.90;;;;;;7285996;19;20278;-77
2023/12/08 11:11:11;;;;;;;44.30;16.63;;;10.30;99.90;;;;;;7286440;19;20202;-78
2023/12/08 11:13:47;;;;;;;46.10;17.37;;;10.30;99.90;;;;;;7284059;19;20318;-77
2023/12/08 11:16:23;;;;;;;43.00;16.67;;;10.30;99.90;;;;;;7286582;19;20258;-76
2023/12/08 11:18:50;;;;;;;46.40;17.20;;;10.30;99.90;;;;;;7283156;19;20190;-77
2023/12/08 11:21:18;;;;;;;45.37;16.27;;;10.40;99.90;;;;;;7286352;19;20190;-77
2023/12/08 11:23:44;;;;;;;45.03;16.20;;;10.30;99.90;;;;;;7287072;19;20624;-76
2023/12/08 11:26:34;;;;;;;43.87;16.40;;;10.40;99.90;;;;;;7306610;19;20588;-77
2023/12/08 11:29:06;;;;;;;40.50;15.60;;;10.40;99.90;;;;;;7182849;19;2004853;-77
2023/12/08 11:31:52;;;;;;;50.67;15.97;;;10.40;99.90;;;;;;7283979;19;20193;-78
2023/12/08 11:34:36;;;;;;;39.03;15.17;;;10.40;99.90;;;;;;7180723;19;2006085;-78
2023/12/08 11:37:02;;;;;;;38.77;13.40;;;10.40;99.90;;;;;;7283315;19;20198;-78
2023/12/08 11:39:37;;;;;;;37.97;14.03;;;10.40;99.90;;;;;;7282669;19;20194;-78
2023/12/08 11:42:03;;;;;;;36.80;14.40;;;10.30;99.90;;;;;;7285193;19;20227;-78
2023/12/08 11:44:33;;;;;;;38.77;15.37;;;10.40;99.90;;;;;;7281905;19;20195;-78
2023/12/08 11:47:00;;;;;;;36.83;14.17;;;10.50;99.90;;;;;;7282620;19;20204;-78
2023/12/08 11:49:26;;;;;;;40.27;14.70;;;10.50;99.90;;;;;;7281796;19;20195;-77
2023/12/08 11:52:12;;;;;;;40.93;14.13;;;10.50;99.90;;;;;;7282658;19;20551;-78
2023/12/08 11:55:00;;;;;;;36.30;12.67;;;10.50;99.90;;;;;;7284886;19;20197;-77
2023/12/08 11:57:27;;;;;;;42.70;14.57;;;10.50;99.90;;;;;;7180659;19;2004737;-78
2023/12/08 11:59:54;;;;;;;43.83;13.97;;;10.50;99.90;;;;;;7280872;19;20198;-78
2023/12/08 12:02:20;;;;;;;39.80;13.23;;;10.50;99.90;;;;;;7277135;19;20203;-77
2023/12/08 12:04:46;;;;;;;36.70;13.53;;;10.60;99.90;;;;;;7282904;19;20695;-78
2023/12/08 12:07:14;;;;;;;38.10;13.90;;;10.60;99.90;;;;;;7303862;19;20202;-77
2023/12/08 12:09:41;;;;;;;36.40;12.67;;;10.70;99.90;;;;;;7283023;19;20650;-79
2023/12/08 12:12:18;;;;;;;38.10;12.33;;;10.70;99.90;;;;;;7283309;19;20654;-78
2023/12/08 12:14:48;;;;;;;32.93;10.87;;;10.80;99.90;;;;;;7272264;19;20199;-78
2023/12/08 12:17:13;;;;;;;30.60;11.27;;;11.00;99.90;;;;;;7293980;19;20247;-77
2023/12/08 12:19:39;;;;;;;29.70;10.57;;;11.00;99.90;;;;;;7301780;19;20208;-78
2023/12/08 12:22:05;;;;;;;30.13;10.37;;;10.90;99.90;;;;;;7283234;19;20177;-78
2023/12/08 12:24:31;;;;;;;29.13;10.57;;;10.90;99.90;;;;;;7281825;19;20528;-79
2023/12/08 12:26:57;;;;;;;26.53;9.43;;;10.90;99.90;;;;;;7281792;19;20185;-78
2023/12/08 12:29:23;;;;;;;25.30;9.23;;;11.00;99.90;;;;;;7283896;19;20199;-78
2023/12/08 12:31:49;;;;;;;28.57;9.03;;;11.10;99.90;;;;;;7281956;19;20183;-77
2023/12/08 12:34:16;;;;;;;25.93;8.97;;;11.00;99.90;;;;;;7281172;19;20211;-77
2023/12/08 12:36:42;;;;;;;24.63;8.80;;;11.00;99.90;;;;;;7304289;19;20197;-79